sensor_id;sensor_type;location;lat;lon;timestamp;P1;durP1;ratioP1;P2;durP2;ratioP2
20322;SDS011;10319;52.206;20.996;2023-04-25T00:01:16;16.30;;;7.00;;
20322;SDS011;10319;52.206;20.996;2023-04-25T00:03:41;16.70;;;7.27;;
20322;SDS011;10319;52.206;20.996;2023-04-25T00:06:06;16.63;;;6.37;;
20322;SDS011;10319;52.206;20.996;2023-04-25T00:08:32;17.47;;;6.77;;
20322;SDS011;10319;52.206;20.996;2023-04-25T00:10:58;17.37;;;7.30;;
20322;SDS011;10319;52.206;20.996;2023-04-25T00:13:23;16.90;;;7.10;;
20322;SDS011;10319;52.206;20.996;2023-04-25T00:15:50;19.23;;;7.30;;
20322;SDS011;10319;52.206;20.996;2023-04-25T00:18:15;16.77;;;7.37;;
20322;SDS011;10319;52.206;20.996;2023-04-25T00:20:40;18.03;;;7.23;;
20322;SDS011;10319;52.206;20.996;2023-04-25T00:23:09;18.80;;;6.93;;
20322;SDS011;10319;52.206;20.996;2023-04-25T00:25:35;17.60;;;7.63;;
20322;SDS011;10319;52.206;20.996;2023-04-25T00:28:00;18.93;;;7.73;;
20322;SDS011;10319;52.206;20.996;2023-04-25T00:30:25;16.80;;;7.40;;
20322;SDS011;10319;52.206;20.996;2023-04-25T00:32:50;16.97;;;7.40;;
20322;SDS011;10319;52.206;20.996;2023-04-25T00:35:16;18.10;;;7.53;;
20322;SDS011;10319;52.206;20.996;2023-04-25T00:37:41;19.07;;;7.97;;
20322;SDS011;10319;52.206;20.996;2023-04-25T00:40:06;17.83;;;7.97;;
20322;SDS011;10319;52.206;20.996;2023-04-25T00:42:32;18.30;;;7.53;;
20322;SDS011;10319;52.206;20.996;2023-04-25T00:44:58;20.40;;;7.90;;
20322;SDS011;10319;52.206;20.996;2023-04-25T00:47:23;16.87;;;7.70;;
20322;SDS011;10319;52.206;20.996;2023-04-25T00:49:48;17.93;;;8.20;;
20322;SDS011;10319;52.206;20.996;2023-04-25T00:52:14;17.63;;;8.10;;
20322;SDS011;10319;52.206;20.996;2023-04-25T00:54:39;17.07;;;7.70;;
20322;SDS011;10319;52.206;20.996;2023-04-25T00:57:04;18.53;;;7.80;;
20322;SDS011;10319;52.206;20.996;2023-04-25T00:59:30;19.20;;;8.00;;
20322;SDS011;10319;52.206;20.996;2023-04-25T01:01:55;18.00;;;8.00;;
20322;SDS011;10319;52.206;20.996;2023-04-25T01:04:21;18.93;;;8.37;;
20322;SDS011;10319;52.206;20.996;2023-04-25T01:06:46;18.90;;;8.63;;
20322;SDS011;10319;52.206;20.996;2023-04-25T01:09:12;17.87;;;7.90;;
20322;SDS011;10319;52.206;20.996;2023-04-25T01:11:38;18.03;;;8.07;;
20322;SDS011;10319;52.206;20.996;2023-04-25T01:14:05;19.17;;;7.90;;
20322;SDS011;10319;52.206;20.996;2023-04-25T01:16:30;18.17;;;7.47;;
20322;SDS011;10319;52.206;20.996;2023-04-25T01:18:56;17.43;;;7.37;;
20322;SDS011;10319;52.206;20.996;2023-04-25T01:21:21;15.23;;;6.73;;
20322;SDS011;10319;52.206;20.996;2023-04-25T01:23:46;15.53;;;6.73;;
20322;SDS011;10319;52.206;20.996;2023-04-25T01:26:12;17.70;;;7.33;;
20322;SDS011;10319;52.206;20.996;2023-04-25T01:28:38;16.57;;;6.80;;
20322;SDS011;10319;52.206;20.996;2023-04-25T01:31:07;16.47;;;6.47;;
20322;SDS011;10319;52.206;20.996;2023-04-25T01:33:32;15.97;;;6.80;;
20322;SDS011;10319;52.206;20.996;2023-04-25T01:35:57;16.53;;;7.50;;
20322;SDS011;10319;52.206;20.996;2023-04-25T01:38:23;16.77;;;6.70;;
20322;SDS011;10319;52.206;20.996;2023-04-25T01:40:48;16.23;;;7.17;;
20322;SDS011;10319;52.206;20.996;2023-04-25T01:43:14;15.63;;;6.13;;
20322;SDS011;10319;52.206;20.996;2023-04-25T01:45:39;16.90;;;7.30;;
20322;SDS011;10319;52.206;20.996;2023-04-25T01:48:06;16.87;;;6.73;;
20322;SDS011;10319;52.206;20.996;2023-04-25T01:50:31;15.80;;;6.87;;
20322;SDS011;10319;52.206;20.996;2023-04-25T01:52:56;17.67;;;7.33;;
20322;SDS011;10319;52.206;20.996;2023-04-25T01:55:22;17.70;;;7.37;;
20322;SDS011;10319;52.206;20.996;2023-04-25T01:57:47;18.80;;;7.10;;
20322;SDS011;10319;52.206;20.996;2023-04-25T02:00:12;17.60;;;6.73;;
20322;SDS011;10319;52.206;20.996;2023-04-25T02:02:38;17.10;;;6.90;;
20322;SDS011;10319;52.206;20.996;2023-04-25T02:05:03;17.70;;;7.03;;
20322;SDS011;10319;52.206;20.996;2023-04-25T02:07:29;15.77;;;6.77;;
20322;SDS011;10319;52.206;20.996;2023-04-25T02:09:54;14.30;;;5.93;;
20322;SDS011;10319;52.206;20.996;2023-04-25T02:12:19;15.95;;;6.50;;
20322;SDS011;10319;52.206;20.996;2023-04-25T02:14:44;15.30;;;6.90;;
20322;SDS011;10319;52.206;20.996;2023-04-25T02:17:10;15.90;;;6.77;;
20322;SDS011;10319;52.206;20.996;2023-04-25T02:19:37;16.33;;;6.23;;
20322;SDS011;10319;52.206;20.996;2023-04-25T02:22:02;16.40;;;6.20;;
20322;SDS011;10319;52.206;20.996;2023-04-25T02:24:27;17.80;;;6.70;;
20322;SDS011;10319;52.206;20.996;2023-04-25T02:26:53;14.57;;;5.53;;
20322;SDS011;10319;52.206;20.996;2023-04-25T02:29:20;15.53;;;6.10;;
20322;SDS011;10319;52.206;20.996;2023-04-25T02:31:45;16.20;;;6.23;;
20322;SDS011;10319;52.206;20.996;2023-04-25T02:34:10;15.50;;;6.27;;
20322;SDS011;10319;52.206;20.996;2023-04-25T02:36:36;14.70;;;5.80;;
20322;SDS011;10319;52.206;20.996;2023-04-25T02:39:01;15.40;;;5.97;;
20322;SDS011;10319;52.206;20.996;2023-04-25T02:41:26;14.53;;;5.83;;
20322;SDS011;10319;52.206;20.996;2023-04-25T02:43:52;15.23;;;5.80;;
20322;SDS011;10319;52.206;20.996;2023-04-25T02:46:17;16.13;;;6.20;;
20322;SDS011;10319;52.206;20.996;2023-04-25T02:48:42;15.10;;;5.77;;
20322;SDS011;10319;52.206;20.996;2023-04-25T02:51:08;16.13;;;6.00;;
20322;SDS011;10319;52.206;20.996;2023-04-25T02:53:33;14.43;;;5.67;;
20322;SDS011;10319;52.206;20.996;2023-04-25T02:55:58;15.00;;;5.67;;
20322;SDS011;10319;52.206;20.996;2023-04-25T02:58:24;13.60;;;5.50;;
20322;SDS011;10319;52.206;20.996;2023-04-25T03:00:49;14.73;;;5.80;;
20322;SDS011;10319;52.206;20.996;2023-04-25T03:03:15;15.13;;;5.90;;
20322;SDS011;10319;52.206;20.996;2023-04-25T03:05:43;15.23;;;5.87;;
20322;SDS011;10319;52.206;20.996;2023-04-25T03:08:08;15.73;;;5.83;;
20322;SDS011;10319;52.206;20.996;2023-04-25T03:10:33;15.03;;;5.63;;
20322;SDS011;10319;52.206;20.996;2023-04-25T03:12:58;17.27;;;5.97;;
20322;SDS011;10319;52.206;20.996;2023-04-25T03:15:24;15.27;;;5.93;;
20322;SDS011;10319;52.206;20.996;2023-04-25T03:17:49;14.93;;;5.90;;
20322;SDS011;10319;52.206;20.996;2023-04-25T03:20:14;15.70;;;6.23;;
20322;SDS011;10319;52.206;20.996;2023-04-25T03:22:39;15.47;;;5.23;;
20322;SDS011;10319;52.206;20.996;2023-04-25T03:25:05;14.43;;;5.80;;
20322;SDS011;10319;52.206;20.996;2023-04-25T03:27:30;14.07;;;5.30;;
20322;SDS011;10319;52.206;20.996;2023-04-25T03:29:55;17.50;;;5.87;;
20322;SDS011;10319;52.206;20.996;2023-04-25T03:32:21;13.77;;;5.30;;
20322;SDS011;10319;52.206;20.996;2023-04-25T03:34:46;18.13;;;5.77;;
20322;SDS011;10319;52.206;20.996;2023-04-25T03:37:11;14.67;;;5.73;;
20322;SDS011;10319;52.206;20.996;2023-04-25T03:39:36;13.30;;;5.20;;
20322;SDS011;10319;52.206;20.996;2023-04-25T03:42:02;15.00;;;5.70;;
20322;SDS011;10319;52.206;20.996;2023-04-25T03:44:28;15.70;;;5.87;;
20322;SDS011;10319;52.206;20.996;2023-04-25T03:46:53;14.93;;;5.30;;
20322;SDS011;10319;52.206;20.996;2023-04-25T03:49:18;13.67;;;5.53;;
20322;SDS011;10319;52.206;20.996;2023-04-25T03:51:43;16.47;;;5.20;;
20322;SDS011;10319;52.206;20.996;2023-04-25T03:54:08;14.87;;;5.27;;
20322;SDS011;10319;52.206;20.996;2023-04-25T03:56:34;14.73;;;5.00;;
20322;SDS011;10319;52.206;20.996;2023-04-25T03:58:59;12.93;;;4.70;;
20322;SDS011;10319;52.206;20.996;2023-04-25T04:01:25;14.97;;;4.97;;
20322;SDS011;10319;52.206;20.996;2023-04-25T04:03:50;13.57;;;4.83;;
20322;SDS011;10319;52.206;20.996;2023-04-25T04:06:16;13.43;;;4.87;;
20322;SDS011;10319;52.206;20.996;2023-04-25T04:08:41;14.33;;;5.07;;
20322;SDS011;10319;52.206;20.996;2023-04-25T04:11:06;15.70;;;5.33;;
20322;SDS011;10319;52.206;20.996;2023-04-25T04:13:31;13.43;;;4.60;;
20322;SDS011;10319;52.206;20.996;2023-04-25T04:15:57;15.67;;;4.90;;
20322;SDS011;10319;52.206;20.996;2023-04-25T04:18:22;14.70;;;4.50;;
20322;SDS011;10319;52.206;20.996;2023-04-25T04:20:48;13.70;;;4.30;;
20322;SDS011;10319;52.206;20.996;2023-04-25T04:23:13;13.90;;;4.40;;
20322;SDS011;10319;52.206;20.996;2023-04-25T04:25:38;13.47;;;4.70;;
20322;SDS011;10319;52.206;20.996;2023-04-25T04:28:04;11.67;;;3.87;;
20322;SDS011;10319;52.206;20.996;2023-04-25T04:30:31;12.13;;;3.90;;
20322;SDS011;10319;52.206;20.996;2023-04-25T04:32:56;11.97;;;4.10;;
20322;SDS011;10319;52.206;20.996;2023-04-25T04:35:22;12.93;;;4.00;;
20322;SDS011;10319;52.206;20.996;2023-04-25T04:37:47;13.07;;;4.03;;
20322;SDS011;10319;52.206;20.996;2023-04-25T04:40:13;13.00;;;4.00;;
20322;SDS011;10319;52.206;20.996;2023-04-25T04:42:40;12.67;;;4.30;;
20322;SDS011;10319;52.206;20.996;2023-04-25T04:45:06;12.47;;;4.33;;
20322;SDS011;10319;52.206;20.996;2023-04-25T04:47:31;12.50;;;4.00;;
20322;SDS011;10319;52.206;20.996;2023-04-25T04:49:57;13.37;;;4.37;;
20322;SDS011;10319;52.206;20.996;2023-04-25T04:52:22;11.87;;;4.00;;
20322;SDS011;10319;52.206;20.996;2023-04-25T04:54:47;11.90;;;3.67;;
20322;SDS011;10319;52.206;20.996;2023-04-25T04:57:13;13.27;;;4.37;;
20322;SDS011;10319;52.206;20.996;2023-04-25T04:59:38;13.10;;;4.30;;
20322;SDS011;10319;52.206;20.996;2023-04-25T05:02:03;13.73;;;4.53;;
20322;SDS011;10319;52.206;20.996;2023-04-25T05:04:28;13.47;;;3.97;;
20322;SDS011;10319;52.206;20.996;2023-04-25T05:06:53;12.23;;;4.00;;
20322;SDS011;10319;52.206;20.996;2023-04-25T05:09:19;12.47;;;4.23;;
20322;SDS011;10319;52.206;20.996;2023-04-25T05:11:44;13.13;;;4.60;;
20322;SDS011;10319;52.206;20.996;2023-04-25T05:14:09;11.07;;;4.10;;
20322;SDS011;10319;52.206;20.996;2023-04-25T05:16:35;13.57;;;5.07;;
20322;SDS011;10319;52.206;20.996;2023-04-25T05:19:00;13.37;;;4.77;;
20322;SDS011;10319;52.206;20.996;2023-04-25T05:21:25;12.77;;;4.40;;
20322;SDS011;10319;52.206;20.996;2023-04-25T05:23:53;14.43;;;4.80;;
20322;SDS011;10319;52.206;20.996;2023-04-25T05:26:18;13.47;;;4.63;;
20322;SDS011;10319;52.206;20.996;2023-04-25T05:28:45;12.17;;;4.50;;
20322;SDS011;10319;52.206;20.996;2023-04-25T05:31:10;12.40;;;4.50;;
20322;SDS011;10319;52.206;20.996;2023-04-25T05:33:35;12.90;;;4.60;;
20322;SDS011;10319;52.206;20.996;2023-04-25T05:36:01;14.00;;;4.80;;
20322;SDS011;10319;52.206;20.996;2023-04-25T05:38:26;13.07;;;4.70;;
20322;SDS011;10319;52.206;20.996;2023-04-25T05:40:51;12.63;;;4.70;;
20322;SDS011;10319;52.206;20.996;2023-04-25T05:43:16;14.27;;;4.63;;
20322;SDS011;10319;52.206;20.996;2023-04-25T05:45:42;12.73;;;4.47;;
20322;SDS011;10319;52.206;20.996;2023-04-25T05:48:07;13.97;;;4.73;;
20322;SDS011;10319;52.206;20.996;2023-04-25T05:50:32;15.07;;;4.90;;
20322;SDS011;10319;52.206;20.996;2023-04-25T05:52:58;13.33;;;5.13;;
20322;SDS011;10319;52.206;20.996;2023-04-25T05:55:23;12.87;;;4.80;;
20322;SDS011;10319;52.206;20.996;2023-04-25T05:57:48;13.80;;;5.20;;
20322;SDS011;10319;52.206;20.996;2023-04-25T06:00:13;15.37;;;4.90;;
20322;SDS011;10319;52.206;20.996;2023-04-25T06:02:40;13.17;;;5.00;;
20322;SDS011;10319;52.206;20.996;2023-04-25T06:05:06;13.23;;;4.93;;
20322;SDS011;10319;52.206;20.996;2023-04-25T06:07:31;13.53;;;4.90;;
20322;SDS011;10319;52.206;20.996;2023-04-25T06:09:57;12.83;;;4.90;;
20322;SDS011;10319;52.206;20.996;2023-04-25T06:12:22;12.47;;;4.63;;
20322;SDS011;10319;52.206;20.996;2023-04-25T06:14:47;12.90;;;4.90;;
20322;SDS011;10319;52.206;20.996;2023-04-25T06:17:13;12.53;;;4.80;;
20322;SDS011;10319;52.206;20.996;2023-04-25T06:19:38;13.00;;;5.07;;
20322;SDS011;10319;52.206;20.996;2023-04-25T06:22:03;12.83;;;4.87;;
20322;SDS011;10319;52.206;20.996;2023-04-25T06:24:28;13.10;;;4.97;;
20322;SDS011;10319;52.206;20.996;2023-04-25T06:26:54;12.53;;;4.87;;
20322;SDS011;10319;52.206;20.996;2023-04-25T06:29:19;13.83;;;5.10;;
20322;SDS011;10319;52.206;20.996;2023-04-25T06:31:44;13.83;;;5.37;;
20322;SDS011;10319;52.206;20.996;2023-04-25T06:34:16;14.43;;;5.57;;
20322;SDS011;10319;52.206;20.996;2023-04-25T06:36:42;15.00;;;5.53;;
20322;SDS011;10319;52.206;20.996;2023-04-25T06:39:09;14.27;;;5.20;;
20322;SDS011;10319;52.206;20.996;2023-04-25T06:41:34;14.97;;;5.33;;
20322;SDS011;10319;52.206;20.996;2023-04-25T06:43:59;14.50;;;5.13;;
20322;SDS011;10319;52.206;20.996;2023-04-25T06:46:25;14.57;;;5.13;;
20322;SDS011;10319;52.206;20.996;2023-04-25T06:48:50;14.87;;;5.17;;
20322;SDS011;10319;52.206;20.996;2023-04-25T06:51:16;13.70;;;5.13;;
20322;SDS011;10319;52.206;20.996;2023-04-25T06:53:41;13.40;;;5.60;;
20322;SDS011;10319;52.206;20.996;2023-04-25T06:56:06;14.13;;;5.67;;
20322;SDS011;10319;52.206;20.996;2023-04-25T06:58:31;12.63;;;4.90;;
20322;SDS011;10319;52.206;20.996;2023-04-25T07:00:57;14.97;;;5.20;;
20322;SDS011;10319;52.206;20.996;2023-04-25T07:03:22;13.77;;;5.00;;
20322;SDS011;10319;52.206;20.996;2023-04-25T07:05:47;13.80;;;4.80;;
20322;SDS011;10319;52.206;20.996;2023-04-25T07:08:12;14.17;;;4.60;;
20322;SDS011;10319;52.206;20.996;2023-04-25T07:10:38;13.10;;;4.40;;
20322;SDS011;10319;52.206;20.996;2023-04-25T07:13:03;13.40;;;4.43;;
20322;SDS011;10319;52.206;20.996;2023-04-25T07:15:28;13.20;;;4.63;;
20322;SDS011;10319;52.206;20.996;2023-04-25T07:17:53;11.90;;;4.20;;
20322;SDS011;10319;52.206;20.996;2023-04-25T07:20:19;11.80;;;4.43;;
20322;SDS011;10319;52.206;20.996;2023-04-25T07:22:44;11.73;;;3.63;;
20322;SDS011;10319;52.206;20.996;2023-04-25T07:25:09;11.37;;;3.70;;
20322;SDS011;10319;52.206;20.996;2023-04-25T07:27:34;11.37;;;4.03;;
20322;SDS011;10319;52.206;20.996;2023-04-25T07:30:00;10.50;;;3.70;;
20322;SDS011;10319;52.206;20.996;2023-04-25T07:32:25;14.20;;;3.70;;
20322;SDS011;10319;52.206;20.996;2023-04-25T07:34:50;12.87;;;4.10;;
20322;SDS011;10319;52.206;20.996;2023-04-25T07:37:16;11.80;;;4.00;;
20322;SDS011;10319;52.206;20.996;2023-04-25T07:39:43;11.90;;;3.80;;
20322;SDS011;10319;52.206;20.996;2023-04-25T07:42:08;11.17;;;3.80;;
20322;SDS011;10319;52.206;20.996;2023-04-25T07:44:34;12.50;;;4.00;;
20322;SDS011;10319;52.206;20.996;2023-04-25T07:47:08;11.67;;;4.03;;
20322;SDS011;10319;52.206;20.996;2023-04-25T07:49:34;11.43;;;3.80;;
20322;SDS011;10319;52.206;20.996;2023-04-25T07:52:00;11.37;;;3.93;;
20322;SDS011;10319;52.206;20.996;2023-04-25T07:54:25;10.30;;;3.37;;
20322;SDS011;10319;52.206;20.996;2023-04-25T07:56:51;10.93;;;3.63;;
20322;SDS011;10319;52.206;20.996;2023-04-25T07:59:16;12.47;;;3.77;;
20322;SDS011;10319;52.206;20.996;2023-04-25T08:01:41;13.23;;;3.90;;
20322;SDS011;10319;52.206;20.996;2023-04-25T08:04:06;10.27;;;3.23;;
20322;SDS011;10319;52.206;20.996;2023-04-25T08:06:31;11.23;;;3.63;;
20322;SDS011;10319;52.206;20.996;2023-04-25T08:08:57;10.33;;;3.70;;
20322;SDS011;10319;52.206;20.996;2023-04-25T08:11:22;11.93;;;3.60;;
20322;SDS011;10319;52.206;20.996;2023-04-25T08:13:48;12.90;;;3.90;;
20322;SDS011;10319;52.206;20.996;2023-04-25T08:16:13;9.77;;;3.30;;
20322;SDS011;10319;52.206;20.996;2023-04-25T08:18:38;9.97;;;3.20;;
20322;SDS011;10319;52.206;20.996;2023-04-25T08:21:03;9.40;;;3.17;;
20322;SDS011;10319;52.206;20.996;2023-04-25T08:23:29;9.23;;;2.80;;
20322;SDS011;10319;52.206;20.996;2023-04-25T08:25:54;7.50;;;2.80;;
20322;SDS011;10319;52.206;20.996;2023-04-25T08:28:19;10.43;;;3.10;;
20322;SDS011;10319;52.206;20.996;2023-04-25T08:30:44;10.23;;;2.80;;
20322;SDS011;10319;52.206;20.996;2023-04-25T08:33:09;9.20;;;3.00;;
20322;SDS011;10319;52.206;20.996;2023-04-25T08:35:35;9.33;;;2.90;;
20322;SDS011;10319;52.206;20.996;2023-04-25T08:38:01;8.40;;;2.87;;
20322;SDS011;10319;52.206;20.996;2023-04-25T08:40:26;9.90;;;3.07;;
20322;SDS011;10319;52.206;20.996;2023-04-25T08:42:55;9.13;;;3.00;;
20322;SDS011;10319;52.206;20.996;2023-04-25T08:45:20;9.37;;;3.10;;
20322;SDS011;10319;52.206;20.996;2023-04-25T08:47:46;9.20;;;2.97;;
20322;SDS011;10319;52.206;20.996;2023-04-25T08:50:13;10.20;;;3.20;;
20322;SDS011;10319;52.206;20.996;2023-04-25T08:52:44;13.17;;;3.67;;
20322;SDS011;10319;52.206;20.996;2023-04-25T08:55:10;11.00;;;3.83;;
20322;SDS011;10319;52.206;20.996;2023-04-25T08:57:36;12.13;;;3.87;;
20322;SDS011;10319;52.206;20.996;2023-04-25T09:00:02;10.77;;;3.67;;
20322;SDS011;10319;52.206;20.996;2023-04-25T09:02:28;10.77;;;3.80;;
20322;SDS011;10319;52.206;20.996;2023-04-25T09:04:54;11.33;;;3.80;;
20322;SDS011;10319;52.206;20.996;2023-04-25T09:07:20;10.70;;;3.40;;
20322;SDS011;10319;52.206;20.996;2023-04-25T09:09:46;9.47;;;3.30;;
20322;SDS011;10319;52.206;20.996;2023-04-25T09:12:11;9.17;;;3.03;;
20322;SDS011;10319;52.206;20.996;2023-04-25T09:14:37;10.07;;;3.20;;
20322;SDS011;10319;52.206;20.996;2023-04-25T09:17:03;9.93;;;3.10;;
20322;SDS011;10319;52.206;20.996;2023-04-25T09:19:30;11.57;;;3.50;;
20322;SDS011;10319;52.206;20.996;2023-04-25T09:22:00;11.50;;;4.30;;
20322;SDS011;10319;52.206;20.996;2023-04-25T09:24:32;13.70;;;4.60;;
20322;SDS011;10319;52.206;20.996;2023-04-25T09:26:57;12.03;;;4.90;;
20322;SDS011;10319;52.206;20.996;2023-04-25T09:29:29;12.33;;;4.97;;
20322;SDS011;10319;52.206;20.996;2023-04-25T09:32:06;13.13;;;5.23;;
20322;SDS011;10319;52.206;20.996;2023-04-25T09:34:39;12.97;;;4.83;;
20322;SDS011;10319;52.206;20.996;2023-04-25T09:37:05;13.70;;;5.63;;
20322;SDS011;10319;52.206;20.996;2023-04-25T09:39:32;12.97;;;5.10;;
20322;SDS011;10319;52.206;20.996;2023-04-25T09:41:57;14.97;;;5.73;;
20322;SDS011;10319;52.206;20.996;2023-04-25T09:44:24;13.50;;;6.00;;
20322;SDS011;10319;52.206;20.996;2023-04-25T09:46:49;13.47;;;5.80;;
20322;SDS011;10319;52.206;20.996;2023-04-25T09:49:19;13.60;;;6.10;;
20322;SDS011;10319;52.206;20.996;2023-04-25T09:51:53;15.13;;;6.57;;
20322;SDS011;10319;52.206;20.996;2023-04-25T09:54:19;13.33;;;5.87;;
20322;SDS011;10319;52.206;20.996;2023-04-25T09:56:44;14.47;;;6.20;;
20322;SDS011;10319;52.206;20.996;2023-04-25T09:59:12;13.23;;;5.90;;
20322;SDS011;10319;52.206;20.996;2023-04-25T10:01:38;15.43;;;6.30;;
20322;SDS011;10319;52.206;20.996;2023-04-25T10:04:04;14.93;;;6.80;;
20322;SDS011;10319;52.206;20.996;2023-04-25T10:06:31;14.30;;;6.80;;
20322;SDS011;10319;52.206;20.996;2023-04-25T10:08:58;14.90;;;7.03;;
20322;SDS011;10319;52.206;20.996;2023-04-25T10:11:24;14.80;;;6.80;;
20322;SDS011;10319;52.206;20.996;2023-04-25T10:13:51;14.60;;;6.83;;
20322;SDS011;10319;52.206;20.996;2023-04-25T10:16:16;14.50;;;6.33;;
20322;SDS011;10319;52.206;20.996;2023-04-25T10:18:42;14.57;;;6.60;;
20322;SDS011;10319;52.206;20.996;2023-04-25T10:21:07;14.27;;;6.10;;
20322;SDS011;10319;52.206;20.996;2023-04-25T10:23:32;13.73;;;6.07;;
20322;SDS011;10319;52.206;20.996;2023-04-25T10:25:59;14.63;;;6.07;;
20322;SDS011;10319;52.206;20.996;2023-04-25T10:28:25;13.80;;;6.20;;
20322;SDS011;10319;52.206;20.996;2023-04-25T10:30:57;14.57;;;6.60;;
20322;SDS011;10319;52.206;20.996;2023-04-25T10:33:29;14.37;;;6.33;;
20322;SDS011;10319;52.206;20.996;2023-04-25T10:35:54;14.57;;;5.30;;
20322;SDS011;10319;52.206;20.996;2023-04-25T10:38:22;14.47;;;5.57;;
20322;SDS011;10319;52.206;20.996;2023-04-25T10:41:21;13.43;;;5.07;;
20322;SDS011;10319;52.206;20.996;2023-04-25T10:43:46;13.37;;;6.27;;
20322;SDS011;10319;52.206;20.996;2023-04-25T10:46:12;12.90;;;5.87;;
20322;SDS011;10319;52.206;20.996;2023-04-25T10:48:38;14.13;;;6.20;;
20322;SDS011;10319;52.206;20.996;2023-04-25T10:51:09;13.23;;;5.90;;
20322;SDS011;10319;52.206;20.996;2023-04-25T10:53:34;14.17;;;6.07;;
20322;SDS011;10319;52.206;20.996;2023-04-25T10:56:00;12.40;;;5.37;;
20322;SDS011;10319;52.206;20.996;2023-04-25T10:58:25;14.03;;;5.43;;
20322;SDS011;10319;52.206;20.996;2023-04-25T11:00:51;13.63;;;5.67;;
20322;SDS011;10319;52.206;20.996;2023-04-25T11:03:16;13.70;;;5.37;;
20322;SDS011;10319;52.206;20.996;2023-04-25T11:05:42;14.47;;;6.10;;
20322;SDS011;10319;52.206;20.996;2023-04-25T11:08:10;13.27;;;5.90;;
20322;SDS011;10319;52.206;20.996;2023-04-25T11:10:40;14.03;;;5.93;;
20322;SDS011;10319;52.206;20.996;2023-04-25T11:13:05;14.27;;;6.53;;
20322;SDS011;10319;52.206;20.996;2023-04-25T11:15:30;13.63;;;6.40;;
20322;SDS011;10319;52.206;20.996;2023-04-25T11:17:55;13.93;;;6.60;;
20322;SDS011;10319;52.206;20.996;2023-04-25T11:20:21;13.73;;;6.37;;
20322;SDS011;10319;52.206;20.996;2023-04-25T11:22:47;14.90;;;6.50;;
20322;SDS011;10319;52.206;20.996;2023-04-25T11:25:13;14.63;;;6.83;;
20322;SDS011;10319;52.206;20.996;2023-04-25T11:27:49;13.13;;;6.00;;
20322;SDS011;10319;52.206;20.996;2023-04-25T11:30:15;14.17;;;6.70;;
20322;SDS011;10319;52.206;20.996;2023-04-25T11:32:41;13.57;;;6.27;;
20322;SDS011;10319;52.206;20.996;2023-04-25T11:35:07;13.40;;;6.03;;
20322;SDS011;10319;52.206;20.996;2023-04-25T11:37:32;12.97;;;5.73;;
20322;SDS011;10319;52.206;20.996;2023-04-25T11:39:59;13.63;;;6.00;;
20322;SDS011;10319;52.206;20.996;2023-04-25T11:42:24;13.57;;;6.17;;
20322;SDS011;10319;52.206;20.996;2023-04-25T11:44:49;13.50;;;6.20;;
20322;SDS011;10319;52.206;20.996;2023-04-25T11:47:15;13.40;;;6.33;;
20322;SDS011;10319;52.206;20.996;2023-04-25T11:49:40;12.70;;;5.33;;
20322;SDS011;10319;52.206;20.996;2023-04-25T11:52:08;13.87;;;5.67;;
20322;SDS011;10319;52.206;20.996;2023-04-25T11:54:37;12.73;;;6.00;;
20322;SDS011;10319;52.206;20.996;2023-04-25T11:57:02;12.70;;;5.70;;
20322;SDS011;10319;52.206;20.996;2023-04-25T11:59:28;12.93;;;5.60;;
20322;SDS011;10319;52.206;20.996;2023-04-25T12:01:53;12.93;;;5.50;;
20322;SDS011;10319;52.206;20.996;2023-04-25T12:04:20;12.57;;;5.60;;
20322;SDS011;10319;52.206;20.996;2023-04-25T12:06:46;12.57;;;5.40;;
20322;SDS011;10319;52.206;20.996;2023-04-25T12:09:12;12.10;;;4.83;;
20322;SDS011;10319;52.206;20.996;2023-04-25T12:11:41;12.30;;;4.90;;
20322;SDS011;10319;52.206;20.996;2023-04-25T12:14:07;11.50;;;4.30;;
20322;SDS011;10319;52.206;20.996;2023-04-25T12:16:45;13.80;;;4.80;;
20322;SDS011;10319;52.206;20.996;2023-04-25T12:19:14;11.73;;;4.47;;
20322;SDS011;10319;52.206;20.996;2023-04-25T12:21:40;11.13;;;4.20;;
20322;SDS011;10319;52.206;20.996;2023-04-25T12:24:18;12.50;;;4.87;;
20322;SDS011;10319;52.206;20.996;2023-04-25T12:26:48;12.13;;;4.23;;
20322;SDS011;10319;52.206;20.996;2023-04-25T12:29:15;10.97;;;3.73;;
20322;SDS011;10319;52.206;20.996;2023-04-25T12:31:41;11.10;;;3.97;;
20322;SDS011;10319;52.206;20.996;2023-04-25T12:34:06;11.00;;;3.93;;
20322;SDS011;10319;52.206;20.996;2023-04-25T12:36:32;9.50;;;3.60;;
20322;SDS011;10319;52.206;20.996;2023-04-25T12:38:57;13.20;;;3.50;;
20322;SDS011;10319;52.206;20.996;2023-04-25T12:41:28;10.27;;;3.53;;
20322;SDS011;10319;52.206;20.996;2023-04-25T12:43:54;10.60;;;3.40;;
20322;SDS011;10319;52.206;20.996;2023-04-25T12:46:19;10.47;;;3.40;;
20322;SDS011;10319;52.206;20.996;2023-04-25T12:48:44;11.10;;;3.40;;
20322;SDS011;10319;52.206;20.996;2023-04-25T12:51:09;13.33;;;3.77;;
20322;SDS011;10319;52.206;20.996;2023-04-25T12:53:35;10.30;;;3.60;;
20322;SDS011;10319;52.206;20.996;2023-04-25T12:56:02;13.07;;;3.07;;
20322;SDS011;10319;52.206;20.996;2023-04-25T12:58:27;12.50;;;3.17;;
20322;SDS011;10319;52.206;20.996;2023-04-25T13:00:52;9.07;;;2.90;;
20322;SDS011;10319;52.206;20.996;2023-04-25T13:03:18;10.87;;;3.40;;
20322;SDS011;10319;52.206;20.996;2023-04-25T13:05:43;10.00;;;3.37;;
20322;SDS011;10319;52.206;20.996;2023-04-25T13:08:08;11.13;;;3.30;;
20322;SDS011;10319;52.206;20.996;2023-04-25T13:10:34;9.37;;;3.13;;
20322;SDS011;10319;52.206;20.996;2023-04-25T13:13:00;9.73;;;3.00;;
20322;SDS011;10319;52.206;20.996;2023-04-25T13:15:26;11.10;;;3.20;;
20322;SDS011;10319;52.206;20.996;2023-04-25T13:17:51;9.23;;;3.20;;
20322;SDS011;10319;52.206;20.996;2023-04-25T13:20:16;9.90;;;3.17;;
20322;SDS011;10319;52.206;20.996;2023-04-25T13:22:43;10.60;;;3.43;;
20322;SDS011;10319;52.206;20.996;2023-04-25T13:25:10;10.77;;;3.43;;
20322;SDS011;10319;52.206;20.996;2023-04-25T13:27:36;8.73;;;2.83;;
20322;SDS011;10319;52.206;20.996;2023-04-25T13:30:02;9.17;;;2.70;;
20322;SDS011;10319;52.206;20.996;2023-04-25T13:32:32;7.77;;;2.50;;
20322;SDS011;10319;52.206;20.996;2023-04-25T13:34:57;7.83;;;2.43;;
20322;SDS011;10319;52.206;20.996;2023-04-25T13:37:22;9.17;;;3.10;;
20322;SDS011;10319;52.206;20.996;2023-04-25T13:39:49;8.90;;;2.90;;
20322;SDS011;10319;52.206;20.996;2023-04-25T13:42:14;9.73;;;2.97;;
20322;SDS011;10319;52.206;20.996;2023-04-25T13:44:40;7.63;;;2.73;;
20322;SDS011;10319;52.206;20.996;2023-04-25T13:47:06;9.63;;;2.80;;
20322;SDS011;10319;52.206;20.996;2023-04-25T13:49:31;8.40;;;2.73;;
20322;SDS011;10319;52.206;20.996;2023-04-25T13:51:56;8.87;;;3.00;;
20322;SDS011;10319;52.206;20.996;2023-04-25T13:54:21;10.00;;;3.20;;
20322;SDS011;10319;52.206;20.996;2023-04-25T13:56:47;8.80;;;2.90;;
20322;SDS011;10319;52.206;20.996;2023-04-25T13:59:13;9.87;;;3.00;;
20322;SDS011;10319;52.206;20.996;2023-04-25T14:01:39;9.03;;;3.07;;
20322;SDS011;10319;52.206;20.996;2023-04-25T14:04:04;8.90;;;3.10;;
20322;SDS011;10319;52.206;20.996;2023-04-25T14:06:30;9.37;;;3.03;;
20322;SDS011;10319;52.206;20.996;2023-04-25T14:08:56;9.70;;;3.30;;
20322;SDS011;10319;52.206;20.996;2023-04-25T14:11:21;8.70;;;2.90;;
20322;SDS011;10319;52.206;20.996;2023-04-25T14:13:46;9.90;;;2.80;;
20322;SDS011;10319;52.206;20.996;2023-04-25T14:16:13;9.43;;;3.00;;